createdAt,value
2017-08-07T00:00:38.752Z,26.20
2017-08-07T00:03:06.481Z,26.30
2017-08-07T00:05:34.207Z,26.50
2017-08-07T00:08:01.924Z,26.50
2017-08-07T00:10:29.645Z,26.30
2017-08-07T00:12:57.439Z,26.40
2017-08-07T00:15:25.943Z,26.30
2017-08-07T00:17:53.660Z,26.20
2017-08-07T00:20:21.440Z,26.40
2017-08-07T00:22:49.244Z,26.40
2017-08-07T00:25:16.974Z,26.40
2017-08-07T00:27:44.693Z,26.30
2017-08-07T00:30:12.476Z,26.30
2017-08-07T00:32:40.202Z,26.10
2017-08-07T00:35:08.011Z,25.70
2017-08-07T00:37:35.745Z,25.80
2017-08-07T00:40:03.464Z,25.80
2017-08-07T00:42:31.191Z,25.70
2017-08-07T00:44:58.935Z,26.00
2017-08-07T00:47:26.709Z,25.90
2017-08-07T00:49:54.492Z,26.00
2017-08-07T00:52:22.311Z,25.80
2017-08-07T00:54:50.852Z,25.80
2017-08-07T00:57:18.632Z,25.80
2017-08-07T00:59:46.378Z,26.00
2017-08-07T01:02:14.177Z,26.00
2017-08-07T01:04:41.896Z,26.00
2017-08-07T01:07:09.630Z,25.90
2017-08-07T01:09:37.419Z,25.80
2017-08-07T01:12:05.159Z,25.80
2017-08-07T01:14:32.892Z,25.80
2017-08-07T01:17:00.608Z,25.80
2017-08-07T01:19:29.212Z,25.70
2017-08-07T01:21:57.003Z,25.60
2017-08-07T01:24:24.717Z,25.70
2017-08-07T01:26:52.488Z,25.70
2017-08-07T01:29:20.233Z,25.70
2017-08-07T01:31:47.945Z,25.70
2017-08-07T01:34:15.665Z,25.80
2017-08-07T01:36:43.478Z,25.90
2017-08-07T01:39:11.250Z,25.90
2017-08-07T01:41:38.973Z,25.80
2017-08-07T01:44:06.700Z,25.80
2017-08-07T01:46:34.488Z,25.80
2017-08-07T01:49:02.221Z,25.70
2017-08-07T01:51:30.025Z,25.80
2017-08-07T01:53:57.800Z,25.90
2017-08-07T01:56:25.525Z,25.80
2017-08-07T01:58:53.252Z,25.90
2017-08-07T02:01:21.802Z,25.80
2017-08-07T02:03:49.602Z,25.70
2017-08-07T02:06:17.389Z,25.80
2017-08-07T02:08:45.125Z,25.80
2017-08-07T02:11:12.852Z,25.80
2017-08-07T02:13:40.644Z,25.80
2017-08-07T02:16:08.421Z,25.70
2017-08-07T02:18:36.201Z,25.70
2017-08-07T02:21:03.919Z,25.60
2017-08-07T02:23:31.700Z,25.60
2017-08-07T02:25:59.419Z,25.50
2017-08-07T02:28:27.165Z,25.40
2017-08-07T02:30:54.938Z,25.30
2017-08-07T02:33:22.744Z,25.30
2017-08-07T02:35:50.485Z,25.40
2017-08-07T02:38:18.213Z,25.40
2017-08-07T02:40:46.014Z,25.30
2017-08-07T02:43:13.804Z,25.20
2017-08-07T02:45:41.534Z,25.40
2017-08-07T02:48:09.345Z,25.40
2017-08-07T02:50:37.096Z,25.50
2017-08-07T02:53:04.906Z,25.50
2017-08-07T02:55:32.703Z,25.50
2017-08-07T02:58:00.436Z,25.30
2017-08-07T03:00:28.220Z,25.30
2017-08-07T03:02:56.013Z,25.50
2017-08-07T03:05:23.766Z,25.40
2017-08-07T03:07:51.497Z,25.40
2017-08-07T03:10:19.233Z,25.50
2017-08-07T03:12:46.972Z,25.60
2017-08-07T03:15:14.772Z,25.50
2017-08-07T03:17:42.491Z,25.40
2017-08-07T03:20:10.242Z,25.40
2017-08-07T03:22:38.028Z,25.40
2017-08-07T03:25:05.766Z,25.10
2017-08-07T03:27:33.583Z,25.30
2017-08-07T03:30:01.306Z,25.30
2017-08-07T03:32:29.049Z,25.50
2017-08-07T03:34:56.844Z,25.50
2017-08-07T03:37:24.636Z,25.60
2017-08-07T03:39:52.444Z,25.60
2017-08-07T03:42:20.197Z,25.60
2017-08-07T03:44:47.921Z,25.50
2017-08-07T03:47:15.653Z,25.50
2017-08-07T03:49:43.389Z,25.50
2017-08-07T03:52:11.197Z,25.50
2017-08-07T03:54:38.921Z,25.50
2017-08-07T03:57:07.467Z,25.30
2017-08-07T03:59:35.271Z,25.30
2017-08-07T04:02:03.015Z,25.30
2017-08-07T04:04:30.758Z,25.20
2017-08-07T04:06:58.563Z,25.30
2017-08-07T04:09:26.345Z,25.30
2017-08-07T04:11:54.156Z,25.30
2017-08-07T04:14:21.959Z,25.30
2017-08-07T04:16:50.531Z,25.30
2017-08-07T04:19:18.274Z,25.30
2017-08-07T04:21:46.006Z,25.40
2017-08-07T04:24:13.742Z,25.40
2017-08-07T04:26:41.510Z,25.30
2017-08-07T04:29:09.309Z,25.30
2017-08-07T04:31:37.076Z,25.30
2017-08-07T04:34:04.807Z,25.30
2017-08-07T04:36:32.631Z,25.10
2017-08-07T04:39:00.544Z,24.90
2017-08-07T04:41:29.103Z,24.80
2017-08-07T04:43:56.823Z,24.80
2017-08-07T04:46:24.586Z,24.90
2017-08-07T04:48:52.311Z,24.70
2017-08-07T04:51:20.054Z,24.60
2017-08-07T04:53:47.825Z,24.60
2017-08-07T04:56:15.622Z,24.60
2017-08-07T04:58:43.348Z,24.80
2017-08-07T05:01:11.118Z,24.90
2017-08-07T05:03:38.853Z,24.70
2017-08-07T05:06:06.569Z,24.80
2017-08-07T05:08:34.301Z,24.70
2017-08-07T05:11:02.045Z,24.70
2017-08-07T05:13:29.825Z,24.80
2017-08-07T05:15:57.643Z,24.90
2017-08-07T05:18:25.388Z,25.00
2017-08-07T05:20:53.875Z,24.90
2017-08-07T05:23:21.589Z,24.80
2017-08-07T05:25:49.368Z,24.70
2017-08-07T05:28:17.128Z,24.70
2017-08-07T05:30:44.865Z,24.70
2017-08-07T05:33:12.667Z,24.80
2017-08-07T05:35:40.508Z,24.70
2017-08-07T05:38:08.234Z,24.60
2017-08-07T05:40:36.511Z,24.60
2017-08-07T05:43:05.622Z,24.80
2017-08-07T05:45:33.423Z,24.70
2017-08-07T05:48:01.144Z,24.70
2017-08-07T05:50:29.330Z,24.80
2017-08-07T05:52:57.159Z,24.80
2017-08-07T05:55:24.936Z,24.90
2017-08-07T05:57:53.519Z,24.90
2017-08-07T06:00:21.329Z,24.70
2017-08-07T06:02:49.115Z,24.60
2017-08-07T06:05:16.887Z,24.80
2017-08-07T06:07:44.643Z,24.80
2017-08-07T06:10:12.375Z,24.80
2017-08-07T06:12:40.100Z,24.90
2017-08-07T06:15:07.904Z,25.10
2017-08-07T06:17:35.620Z,25.20
2017-08-07T06:20:03.394Z,25.20
2017-08-07T06:22:31.150Z,25.00
2017-08-07T06:24:58.931Z,25.00
2017-08-07T06:27:26.741Z,25.30
2017-08-07T06:29:54.563Z,25.50
2017-08-07T06:32:23.076Z,25.70
2017-08-07T06:34:50.879Z,25.70
2017-08-07T06:37:18.668Z,25.80
2017-08-07T06:39:46.408Z,25.70
2017-08-07T06:42:14.829Z,25.80
2017-08-07T06:44:42.612Z,25.80
2017-08-07T06:47:10.340Z,25.80
2017-08-07T06:49:38.117Z,25.80
2017-08-07T06:52:05.909Z,25.80
2017-08-07T06:54:33.640Z,25.80
2017-08-07T06:57:01.421Z,25.80
2017-08-07T06:59:30.178Z,26.00
2017-08-07T07:01:57.909Z,25.80
2017-08-07T07:04:25.687Z,25.80
2017-08-07T07:06:53.506Z,25.80
2017-08-07T07:09:21.308Z,25.80
2017-08-07T07:11:49.783Z,25.80
2017-08-07T07:14:17.553Z,25.80
2017-08-07T07:16:45.441Z,25.80
2017-08-07T07:19:13.246Z,25.90
2017-08-07T07:21:41.016Z,25.80
2017-08-07T07:24:08.809Z,26.00
2017-08-07T07:26:36.603Z,26.00
2017-08-07T07:29:04.384Z,25.90
2017-08-07T07:31:32.141Z,25.90
2017-08-07T07:33:59.934Z,26.10
2017-08-07T07:36:27.717Z,26.10
2017-08-07T07:38:55.508Z,26.10
2017-08-07T07:41:23.242Z,26.10
2017-08-07T07:43:51.029Z,26.00
2017-08-07T07:46:18.833Z,26.20
2017-08-07T07:48:46.575Z,26.00
2017-08-07T07:51:15.272Z,26.00
2017-08-07T07:53:43.076Z,26.10
2017-08-07T07:56:10.801Z,26.00
2017-08-07T07:58:38.575Z,25.90
2017-08-07T08:01:06.377Z,26.00
2017-08-07T08:03:34.096Z,26.30
2017-08-07T08:06:01.868Z,26.40
2017-08-07T08:08:29.600Z,26.30
2017-08-07T08:10:57.321Z,26.20
2017-08-07T08:13:25.830Z,25.90
2017-08-07T08:15:53.581Z,25.80
2017-08-07T08:18:21.336Z,25.90
2017-08-07T08:20:49.389Z,26.10
2017-08-07T08:23:17.162Z,26.10
2017-08-07T08:25:44.953Z,26.20
2017-08-07T08:28:12.766Z,26.30
2017-08-07T08:30:40.555Z,26.30
2017-08-07T08:33:08.346Z,26.30
2017-08-07T08:35:36.132Z,26.30
2017-08-07T08:38:03.920Z,26.30
2017-08-07T08:40:31.693Z,26.30
2017-08-07T08:42:59.512Z,26.30
2017-08-07T08:45:28.076Z,26.30
2017-08-07T08:47:55.848Z,26.20
2017-08-07T08:50:23.590Z,26.30
2017-08-07T08:52:51.362Z,26.40
2017-08-07T08:55:19.111Z,26.50
2017-08-07T08:57:46.864Z,26.50
2017-08-07T09:00:14.594Z,26.50
2017-08-07T09:02:42.384Z,26.50
2017-08-07T09:05:10.113Z,26.60
2017-08-07T09:07:37.841Z,26.60
2017-08-07T09:10:05.640Z,26.70
2017-08-07T09:12:33.428Z,26.80
2017-08-07T09:15:01.208Z,26.80
2017-08-07T09:17:28.959Z,26.60
2017-08-07T09:19:56.679Z,26.60
2017-08-07T09:22:24.456Z,26.70
2017-08-07T09:24:52.264Z,26.80
2017-08-07T09:27:20.062Z,26.80
2017-08-07T09:29:47.872Z,26.80
2017-08-07T09:32:15.668Z,26.80
2017-08-07T09:34:43.396Z,26.80
2017-08-07T09:37:11.182Z,26.80
2017-08-07T09:39:38.909Z,26.80
2017-08-07T09:42:06.678Z,26.80
2017-08-07T09:44:34.452Z,26.80
2017-08-07T09:47:02.233Z,26.90
2017-08-07T09:49:29.948Z,26.90
2017-08-07T09:51:57.665Z,27.00
2017-08-07T09:54:25.396Z,27.00
2017-08-07T09:56:53.173Z,27.00
2017-08-07T09:59:20.898Z,27.00
2017-08-07T10:01:49.434Z,27.00
2017-08-07T10:04:22.332Z,27.00
2017-08-07T10:06:51.016Z,27.10
2017-08-07T10:09:18.842Z,27.10
2017-08-07T10:11:46.585Z,27.20
2017-08-07T10:14:14.349Z,27.20
2017-08-07T10:16:42.172Z,27.20
2017-08-07T10:19:09.913Z,27.20
2017-08-07T10:21:37.797Z,27.20
2017-08-07T10:24:05.597Z,27.20
2017-08-07T10:26:33.342Z,27.20
2017-08-07T10:29:01.095Z,27.20
2017-08-07T10:31:28.837Z,27.30
2017-08-07T10:33:57.365Z,27.30
2017-08-07T10:36:25.283Z,27.20
2017-08-07T10:38:53.923Z,27.40
2017-08-07T10:41:21.749Z,27.30
2017-08-07T10:43:51.038Z,27.50
2017-08-07T10:46:19.681Z,27.50
2017-08-07T10:48:48.318Z,27.50
2017-08-07T10:51:16.039Z,27.50
2017-08-07T10:53:43.832Z,27.60
2017-08-07T10:56:11.634Z,27.70
2017-08-07T10:58:39.373Z,27.70
2017-08-07T11:01:07.149Z,27.70
2017-08-07T11:03:34.980Z,27.70
2017-08-07T11:06:02.695Z,27.70
2017-08-07T11:08:30.444Z,27.70
2017-08-07T11:10:58.197Z,27.70
2017-08-07T11:13:26.037Z,27.70
2017-08-07T11:15:53.829Z,27.80
2017-08-07T11:18:21.566Z,27.70
2017-08-07T11:20:49.372Z,27.80
2017-08-07T11:23:21.011Z,27.90
2017-08-07T11:25:48.851Z,28.00
2017-08-07T11:28:16.632Z,27.90
2017-08-07T11:30:44.452Z,27.90
2017-08-07T11:33:13.037Z,27.90
2017-08-07T11:35:41.491Z,27.90
2017-08-07T11:38:10.217Z,28.00
2017-08-07T11:40:38.829Z,28.00
2017-08-07T11:43:06.608Z,28.00
2017-08-07T11:45:34.401Z,28.10
2017-08-07T11:48:02.186Z,28.30
2017-08-07T11:50:30.003Z,28.30
2017-08-07T11:52:57.728Z,28.20
2017-08-07T11:55:25.526Z,28.20
2017-08-07T11:57:53.263Z,28.10
2017-08-07T12:00:21.036Z,28.20
2017-08-07T12:02:49.554Z,28.20
2017-08-07T12:05:17.368Z,28.20
2017-08-07T12:07:45.074Z,28.20
2017-08-07T12:10:12.801Z,28.20
2017-08-07T12:12:40.656Z,28.20
2017-08-07T12:15:08.457Z,28.30
2017-08-07T12:17:36.240Z,28.30
2017-08-07T12:20:03.975Z,28.30
2017-08-07T12:22:31.771Z,28.30
2017-08-07T12:24:59.587Z,28.30
2017-08-07T12:27:27.299Z,28.30
2017-08-07T12:29:55.087Z,28.40
2017-08-07T12:32:22.921Z,28.30
2017-08-07T12:34:51.419Z,28.50
2017-08-07T12:37:19.162Z,28.50
2017-08-07T12:39:46.901Z,28.70
2017-08-07T12:42:14.695Z,29.00
2017-08-07T12:44:42.507Z,28.90
2017-08-07T12:47:10.342Z,29.00
2017-08-07T12:49:38.076Z,29.00
2017-08-07T12:52:05.872Z,29.00
2017-08-07T12:54:33.597Z,28.90
2017-08-07T12:57:01.421Z,29.10
2017-08-07T12:59:29.195Z,29.10
2017-08-07T13:01:57.016Z,29.00
2017-08-07T13:04:24.909Z,29.00
2017-08-07T13:06:52.727Z,29.10
2017-08-07T13:09:21.308Z,29.10
2017-08-07T13:11:49.029Z,29.10
2017-08-07T13:14:16.776Z,29.10
2017-08-07T13:16:44.559Z,28.90
2017-08-07T13:19:12.346Z,28.90
2017-08-07T13:21:40.864Z,28.70
2017-08-07T13:24:08.655Z,28.70
2017-08-07T13:26:36.450Z,28.80
2017-08-07T13:29:04.240Z,28.90
2017-08-07T13:31:32.604Z,28.90
2017-08-07T13:34:00.326Z,29.00
2017-08-07T13:36:28.110Z,29.10
2017-08-07T13:38:55.914Z,29.10
2017-08-07T13:41:23.642Z,29.10
2017-08-07T13:43:51.413Z,29.10
2017-08-07T13:46:19.135Z,29.20
2017-08-07T13:48:46.908Z,29.10
2017-08-07T13:51:15.236Z,29.20
2017-08-07T13:53:43.009Z,29.10
2017-08-07T13:56:11.077Z,29.20
2017-08-07T13:58:38.823Z,29.30
2017-08-07T14:01:06.600Z,29.20
2017-08-07T14:03:34.332Z,29.10
2017-08-07T14:06:02.135Z,29.20
2017-08-07T14:08:29.928Z,29.30
2017-08-07T14:10:57.631Z,29.20
2017-08-07T14:13:25.594Z,29.30
2017-08-07T14:15:53.378Z,29.30
2017-08-07T14:18:21.096Z,29.20
2017-08-07T14:20:48.899Z,29.30
2017-08-07T14:23:16.610Z,29.30
2017-08-07T14:25:44.407Z,29.30
2017-08-07T14:28:12.206Z,29.30
2017-08-07T14:30:40.805Z,29.30
2017-08-07T14:33:08.527Z,29.40
2017-08-07T14:35:36.313Z,29.30
2017-08-07T14:38:04.077Z,29.30
2017-08-07T14:40:31.789Z,29.30
2017-08-07T14:42:59.584Z,29.30
2017-08-07T14:45:27.394Z,29.30
2017-08-07T14:47:55.195Z,29.30
2017-08-07T14:50:22.928Z,29.30
2017-08-07T14:52:50.718Z,29.20
2017-08-07T14:55:18.533Z,29.30
2017-08-07T14:57:46.979Z,29.30
2017-08-07T15:00:14.706Z,29.40
2017-08-07T15:02:42.560Z,29.40
2017-08-07T15:05:11.056Z,29.40
2017-08-07T15:07:38.847Z,29.30
2017-08-07T15:10:07.527Z,29.40
2017-08-07T15:12:35.327Z,29.40
2017-08-07T15:15:03.104Z,29.40
2017-08-07T15:17:31.753Z,29.40
2017-08-07T15:19:59.593Z,29.40
2017-08-07T15:22:27.389Z,29.40
2017-08-07T15:24:56.256Z,29.40
2017-08-07T15:27:24.406Z,29.40
2017-08-07T15:29:52.153Z,29.60
2017-08-07T15:32:20.886Z,29.60
2017-08-07T15:34:48.911Z,29.50
2017-08-07T15:37:18.337Z,29.50
2017-08-07T15:39:47.234Z,29.60
2017-08-07T15:42:15.010Z,29.50
2017-08-07T15:44:43.560Z,29.60
2017-08-07T15:47:11.276Z,29.50
2017-08-07T15:49:39.034Z,29.50
2017-08-07T15:52:07.505Z,29.60
2017-08-07T15:54:35.274Z,29.50
2017-08-07T15:57:03.038Z,29.50
2017-08-07T15:59:30.836Z,29.60
2017-08-07T16:01:58.558Z,29.60
2017-08-07T16:04:26.343Z,29.60
2017-08-07T16:06:54.130Z,29.60
2017-08-07T16:09:21.844Z,29.60
2017-08-07T16:11:49.644Z,29.50
2017-08-07T16:14:17.360Z,29.60
2017-08-07T16:16:45.102Z,29.50
2017-08-07T16:19:14.327Z,29.60
2017-08-07T16:21:42.269Z,29.60
2017-08-07T16:24:10.109Z,29.60
2017-08-07T16:26:37.844Z,29.50
2017-08-07T16:29:05.589Z,29.60
2017-08-07T16:31:34.254Z,29.60
2017-08-07T16:34:02.044Z,29.50
2017-08-07T16:36:29.830Z,29.50
2017-08-07T16:38:57.618Z,29.50
2017-08-07T16:41:25.354Z,29.50
2017-08-07T16:43:53.094Z,29.50
2017-08-07T16:46:20.836Z,29.50
2017-08-07T16:48:48.820Z,29.50
2017-08-07T16:51:16.685Z,29.50
2017-08-07T16:53:44.471Z,29.50
2017-08-07T16:56:12.192Z,29.40
2017-08-07T16:58:39.963Z,29.40
2017-08-07T17:01:07.677Z,29.40
2017-08-07T17:03:35.396Z,29.40
2017-08-07T17:06:03.202Z,29.40
2017-08-07T17:08:30.921Z,29.40
2017-08-07T17:10:58.697Z,29.30
2017-08-07T17:13:26.487Z,29.30
2017-08-07T17:15:54.985Z,29.30
2017-08-07T17:18:22.799Z,29.20
2017-08-07T17:20:50.533Z,29.30
2017-08-07T17:23:18.262Z,29.30
2017-08-07T17:25:46.080Z,29.30
2017-08-07T17:28:15.100Z,29.20
2017-08-07T17:30:42.956Z,29.20
2017-08-07T17:33:14.062Z,29.20
2017-08-07T17:35:41.881Z,29.20
2017-08-07T17:38:11.486Z,29.20
2017-08-07T17:40:39.322Z,29.20
2017-08-07T17:43:07.120Z,29.20
2017-08-07T17:45:34.989Z,29.20
2017-08-07T17:48:02.911Z,29.20
2017-08-07T17:50:31.772Z,29.20
2017-08-07T17:53:02.424Z,29.20
2017-08-07T17:55:35.906Z,29.20
2017-08-07T17:58:03.784Z,29.10
2017-08-07T18:00:31.518Z,29.20
2017-08-07T18:03:00.267Z,29.20
2017-08-07T18:05:32.451Z,29.20
2017-08-07T18:08:00.267Z,29.20
2017-08-07T18:10:28.151Z,29.20
2017-08-07T18:12:55.888Z,29.10
2017-08-07T18:15:23.639Z,29.10
2017-08-07T18:17:51.414Z,29.10
2017-08-07T18:20:19.149Z,29.10
2017-08-07T18:22:46.976Z,29.10
2017-08-07T18:25:14.722Z,29.10
2017-08-07T18:27:42.503Z,29.10
2017-08-07T18:30:10.226Z,29.10
2017-08-07T18:32:38.047Z,29.10
2017-08-07T18:35:05.889Z,29.10
2017-08-07T18:37:33.672Z,29.00
2017-08-07T18:40:02.914Z,29.00
2017-08-07T18:42:30.676Z,29.00
2017-08-07T18:45:05.772Z,29.00
2017-08-07T18:47:35.103Z,29.00
2017-08-07T18:50:04.533Z,28.90
2017-08-07T18:55:38.707Z,29.00
2017-08-07T18:58:10.334Z,29.00
2017-08-07T19:00:38.168Z,29.00
2017-08-07T19:03:05.910Z,29.00
2017-08-07T19:05:33.733Z,29.00
2017-08-07T19:08:02.418Z,29.00
2017-08-07T19:10:30.177Z,29.00
2017-08-07T19:12:58.710Z,29.00
2017-08-07T19:15:26.562Z,29.00
2017-08-07T19:17:54.377Z,29.00
2017-08-07T19:20:25.933Z,29.00
2017-08-07T19:22:53.669Z,28.90
2017-08-07T19:25:21.491Z,28.90
2017-08-07T19:27:49.338Z,28.90
2017-08-07T19:30:17.101Z,28.90
2017-08-07T19:32:44.859Z,29.00
2017-08-07T19:35:12.618Z,29.00
2017-08-07T19:37:40.489Z,29.00
2017-08-07T19:40:08.258Z,29.00
2017-08-07T19:42:36.787Z,29.00
2017-08-07T19:45:04.670Z,29.00
2017-08-07T19:47:32.467Z,29.00
2017-08-07T19:50:01.257Z,28.90
2017-08-07T19:52:30.526Z,28.90
2017-08-07T19:54:59.244Z,29.00
2017-08-07T19:57:27.987Z,29.00
2017-08-07T20:00:00.103Z,29.00
2017-08-07T20:02:27.911Z,29.00
2017-08-07T20:04:55.727Z,29.00
2017-08-07T20:07:23.498Z,28.90
2017-08-07T20:09:51.279Z,29.00
2017-08-07T20:12:19.053Z,28.90
2017-08-07T20:14:46.878Z,28.90
2017-08-07T20:17:14.657Z,28.90
2017-08-07T20:19:42.458Z,28.90
2017-08-07T20:22:10.208Z,28.90
2017-08-07T20:24:38.036Z,28.90
2017-08-07T20:27:05.830Z,28.90
2017-08-07T20:29:33.646Z,28.90
2017-08-07T20:32:01.472Z,28.90
2017-08-07T20:34:29.311Z,28.90
2017-08-07T20:36:57.118Z,28.80
2017-08-07T20:39:24.934Z,28.80
2017-08-07T20:41:52.761Z,28.80
2017-08-07T20:44:23.717Z,28.80
2017-08-07T20:46:52.413Z,28.80
2017-08-07T20:49:21.024Z,28.80
2017-08-07T20:51:49.149Z,28.70
2017-08-07T20:54:19.109Z,28.80
2017-08-07T20:56:46.958Z,28.70
2017-08-07T20:59:14.844Z,28.70
2017-08-07T21:01:42.635Z,28.70
2017-08-07T21:04:10.476Z,28.60
2017-08-07T21:06:43.385Z,28.60
2017-08-07T21:09:36.502Z,28.60
2017-08-07T21:12:05.318Z,28.60
2017-08-07T21:14:33.254Z,28.60
2017-08-07T21:17:01.137Z,28.60
2017-08-07T21:19:28.935Z,28.60
2017-08-07T21:21:59.682Z,28.50
2017-08-07T21:24:33.457Z,28.60
2017-08-07T21:27:02.104Z,28.50
2017-08-07T21:29:29.923Z,28.40
2017-08-07T21:31:57.731Z,28.40
2017-08-07T21:34:25.564Z,28.30
2017-08-07T21:36:53.432Z,28.10
2017-08-07T21:39:22.019Z,28.00
2017-08-07T21:41:49.823Z,28.00
2017-08-07T21:44:17.621Z,28.10
2017-08-07T21:46:45.450Z,28.00
2017-08-07T21:49:14.201Z,28.00
2017-08-07T21:51:42.043Z,28.10
2017-08-07T21:54:09.806Z,28.30
2017-08-07T21:56:37.614Z,28.30
2017-08-07T21:59:05.454Z,28.40
2017-08-07T22:01:36.528Z,28.20
2017-08-07T22:04:04.761Z,28.20
2017-08-07T22:06:34.712Z,28.30
2017-08-07T22:09:05.892Z,28.40
2017-08-07T22:11:34.926Z,28.30
2017-08-07T22:14:17.013Z,28.40
2017-08-07T22:16:45.770Z,28.30
2017-08-07T22:19:14.662Z,28.20
2017-08-07T22:21:45.936Z,28.00
2017-08-07T22:27:04.411Z,27.90
2017-08-07T22:29:32.182Z,27.70
2017-08-07T22:31:59.938Z,27.60
2017-08-07T22:34:28.407Z,27.50
2017-08-07T22:36:56.169Z,27.50
2017-08-07T22:39:24.696Z,27.40
2017-08-07T22:41:52.516Z,27.40
2017-08-07T22:44:20.370Z,27.40
2017-08-07T22:46:48.204Z,27.30
2017-08-07T22:49:15.960Z,27.40
2017-08-07T22:51:43.734Z,27.70
2017-08-07T22:54:11.571Z,27.60
2017-08-07T22:56:39.392Z,27.50
2017-08-07T22:59:07.176Z,27.30
2017-08-07T23:01:35.020Z,27.30
2017-08-07T23:04:02.793Z,27.40
2017-08-07T23:06:30.610Z,27.60
2017-08-07T23:08:58.420Z,27.50
2017-08-07T23:11:26.160Z,27.50
2017-08-07T23:13:53.990Z,27.40
2017-08-07T23:16:21.833Z,27.30
2017-08-07T23:18:49.657Z,27.30
2017-08-07T23:21:17.434Z,27.30
2017-08-07T23:23:45.250Z,27.20
2017-08-07T23:26:13.086Z,27.20
2017-08-07T23:28:40.856Z,27.10
2017-08-07T23:31:08.686Z,27.00
2017-08-07T23:33:36.437Z,26.90
2017-08-07T23:36:04.242Z,26.90
2017-08-07T23:38:31.989Z,26.80
2017-08-07T23:40:59.726Z,26.80
2017-08-07T23:43:27.485Z,26.80
2017-08-07T23:45:55.231Z,26.80
2017-08-07T23:48:22.995Z,26.80
2017-08-07T23:50:50.806Z,26.80
2017-08-07T23:53:19.502Z,26.80
2017-08-07T23:55:47.266Z,26.80
2017-08-07T23:58:15.037Z,26.80
